Terminal Aerodrome Forecast
Issued by NWS Northern Indiana

Home | Current Version | Previous Version | Graphics & Text | Print | Product List | Glossary On
Versions: 1 2 3 4 5 6 7 8 9 10 11 12 13 14 15
000
FTUS43 KIWX 281000 AAA
TAFFWA
TAF AMD
KFWA 281033Z 2811/2906 22014KT 6SM -SHRA VCTS BKN040CB OVC100
      TEMPO 2811/2814 4SM SHRA BKN030
     FM281600 26016G23KT P6SM SCT040
     FM290000 25008KT P6SM SCT250=

USA.gov is the U.S. government's official web portal to all federal, state and local government web resources and services.